Time;durP1;ratioP1;P1;durP2;ratioP2;P2;SDS_P1;SDS_P2;PMS_P1;PMS_P2;Temp;Humidity;BMP_temperature;BMP_pressure;BME280_temperature;BME280_humidity;BME280_pressure;Samples;Min_cycle;Max_cycle;Signal;HPM_P1;HPM_P2
2022/03/04 00:02:13;;;;;;;5.25;2.95;;;;;;;0.95;100.00;102057.03;6134149;28;20066;-79
2022/03/04 00:05:15;;;;;;;7.70;3.65;;;;;;;0.87;100.00;102050.97;6125806;29;20048;-79
2022/03/04 00:08:16;;;;;;;9.43;3.15;;;;;;;0.84;100.00;102056.97;6125560;29;20514;-79
2022/03/04 00:11:18;;;;;;;7.03;2.80;;;;;;;0.89;100.00;102060.44;6105324;28;20048;-79
2022/03/04 00:14:21;;;;;;;10.38;3.20;;;;;;;0.93;100.00;102057.03;6111218;28;20051;-79
2022/03/04 00:17:23;;;;;;;5.75;2.83;;;;;;;0.91;100.00;102065.63;6133645;29;20054;-79
2022/03/04 00:20:24;;;;;;;5.47;2.40;;;;;;;0.88;100.00;102066.50;6148527;28;20055;-79
2022/03/04 00:23:25;;;;;;;7.10;3.45;;;;;;;0.85;100.00;102063.88;6149030;28;20062;-79
2022/03/04 00:26:27;;;;;;;7.07;3.53;;;;;;;0.82;100.00;102070.72;6149189;28;20047;-79
2022/03/04 00:29:29;;;;;;;14.55;4.30;;;;;;;0.76;100.00;102067.25;6149042;28;20047;-79
2022/03/04 00:32:31;;;;;;;8.57;2.75;;;;;;;0.80;100.00;102069.88;6147826;28;20659;-78
2022/03/04 00:35:33;;;;;;;5.88;3.20;;;;;;;0.75;100.00;102083.63;6148592;28;20051;-80
2022/03/04 00:38:34;;;;;;;4.70;3.22;;;;;;;0.76;100.00;102087.06;6149194;28;20051;-79
2022/03/04 00:41:35;;;;;;;8.10;3.45;;;;;;;0.84;100.00;102082.84;6148210;28;20051;-79
2022/03/04 00:44:38;;;;;;;7.93;3.45;;;;;;;0.84;100.00;102092.31;6148608;28;20423;-79
2022/03/04 00:47:39;;;;;;;5.15;2.42;;;;;;;1.04;100.00;102093.34;6148400;28;20051;-79
2022/03/04 00:50:41;;;;;;;6.30;3.20;;;;;;;1.01;100.00;102096.78;6148011;28;20400;-78
2022/03/04 00:53:43;;;;;;;5.85;2.47;;;;;;;0.91;100.00;102096.69;6148373;28;20487;-79
2022/03/04 00:56:45;;;;;;;5.93;3.22;;;;;;;0.95;100.00;102093.28;6148438;28;20062;-79
2022/03/04 00:59:47;;;;;;;11.48;3.40;;;;;;;0.86;100.00;102095.78;6148207;28;20533;-79
2022/03/04 01:02:49;;;;;;;5.35;2.58;;;;;;;0.80;100.00;102095.75;6147882;28;20058;-79
2022/03/04 01:05:50;;;;;;;5.72;3.38;;;;;;;0.75;100.00;102093.13;6148180;28;20051;-79
2022/03/04 01:08:52;;;;;;;5.93;2.63;;;;;;;0.76;100.00;102095.69;6148260;28;20648;-79
2022/03/04 01:11:53;;;;;;;6.90;2.55;;;;;;;0.76;100.00;102095.69;6147599;28;20055;-79
2022/03/04 01:14:56;;;;;;;8.25;2.50;;;;;;;0.84;100.00;102093.19;6148161;28;20051;-79
2022/03/04 01:17:57;;;;;;;7.63;3.70;;;;;;;0.61;100.00;102090.41;6148020;28;20047;-79
2022/03/04 01:20:58;;;;;;;11.52;2.83;;;;;;;0.42;100.00;102073.00;6147431;28;20051;-79
2022/03/04 01:24:00;;;;;;;8.23;3.42;;;;;;;0.32;100.00;102082.38;6148041;28;20055;-79
2022/03/04 01:27:01;;;;;;;8.30;2.55;;;;;;;0.20;100.00;102077.94;6147549;28;20415;-78
2022/03/04 01:30:06;;;;;;;8.48;3.47;;;;;;;0.09;100.00;102070.91;6147480;28;20055;-78
2022/03/04 01:33:08;;;;;;;7.53;3.83;;;;;;;0.04;100.00;102081.19;6146988;28;20059;-79
2022/03/04 01:36:09;;;;;;;4.55;2.25;;;;;;;0.10;100.00;102073.50;6147092;28;20414;-79
2022/03/04 01:39:10;;;;;;;7.80;3.05;;;;;;;0.14;100.00;102077.88;6137627;28;20052;-78
2022/03/04 01:42:12;;;;;;;7.05;2.80;;;;;;;0.22;100.00;102072.75;6136892;29;20058;-78
2022/03/04 01:45:15;;;;;;;6.30;2.40;;;;;;;0.28;100.00;102075.44;6137502;28;20521;-79
2022/03/04 01:48:19;;;;;;;7.90;3.50;;;;;;;0.30;100.00;102073.72;6138834;28;20055;-78
2022/03/04 01:51:21;;;;;;;7.20;2.92;;;;;;;0.39;100.00;102072.94;6145753;28;20059;-78
2022/03/04 01:54:22;;;;;;;3.17;2.28;;;;;;;0.49;100.00;102074.75;6138861;28;20063;-78
2022/03/04 01:57:24;;;;;;;4.93;3.17;;;;;;;0.49;100.00;102079.94;6134234;28;20051;-79
2022/03/04 02:00:26;;;;;;;5.05;2.55;;;;;;;0.53;100.00;102075.66;6146009;28;20063;-78
2022/03/04 02:03:28;;;;;;;11.13;3.65;;;;;;;0.55;100.00;102073.97;6146840;28;20055;-78
2022/03/04 02:06:29;;;;;;;5.95;3.13;;;;;;;0.60;100.00;102080.91;6146592;28;20058;-79
2022/03/04 02:09:30;;;;;;;5.28;3.08;;;;;;;0.59;100.00;102076.59;6144839;28;20047;-78
2022/03/04 02:12:32;;;;;;;10.32;2.72;;;;;;;0.55;100.00;102073.97;6139506;29;20067;-79
2022/03/04 02:15:35;;;;;;;7.55;3.03;;;;;;;0.55;100.00;102071.38;6146787;28;20054;-78
2022/03/04 02:18:36;;;;;;;6.07;3.25;;;;;;;0.58;100.00;102072.25;6146722;28;20054;-79
2022/03/04 02:21:42;;;;;;;6.20;2.45;;;;;;;0.55;100.00;102073.97;6146003;28;20052;-78
2022/03/04 02:24:45;;;;;;;7.15;3.25;;;;;;;0.53;100.00;102079.13;6146535;28;20612;-79
2022/03/04 02:27:46;;;;;;;6.25;2.83;;;;;;;0.58;100.00;102076.56;6146383;28;20501;-79
2022/03/04 02:30:48;;;;;;;7.25;3.78;;;;;;;0.56;100.00;102075.69;6145730;28;20134;-78
2022/03/04 02:33:50;;;;;;;6.72;2.80;;;;;;;0.60;100.00;102067.13;6146126;28;20050;-78
2022/03/04 02:36:51;;;;;;;5.68;2.78;;;;;;;0.64;100.00;102074.06;6146321;28;20074;-78
2022/03/04 02:39:54;;;;;;;4.93;2.53;;;;;;;0.64;100.00;102069.75;6146014;28;20058;-78
2022/03/04 02:42:55;;;;;;;9.77;3.30;;;;;;;0.58;100.00;102066.22;6146029;28;20518;-78
2022/03/04 02:45:57;;;;;;;4.90;2.60;;;;;;;0.58;100.00;102072.25;6146205;28;20051;-78
2022/03/04 02:48:58;;;;;;;8.73;3.78;;;;;;;0.52;100.00;102069.63;6146029;28;20075;-79
2022/03/04 02:52:00;;;;;;;6.88;3.58;;;;;;;0.52;100.00;102071.34;6145325;28;20499;-79
2022/03/04 02:55:03;;;;;;;5.43;2.58;;;;;;;0.54;100.00;102073.06;6146330;28;20054;-79
2022/03/04 02:58:04;;;;;;;8.43;2.72;;;;;;;0.55;100.00;102076.56;6150182;28;20047;-79
2022/03/04 03:01:06;;;;;;;8.98;2.97;;;;;;;0.58;100.00;102072.25;6149306;28;20418;-78
2022/03/04 03:04:07;;;;;;;5.00;2.83;;;;;;;0.60;100.00;102075.75;6143226;28;20043;-79
2022/03/04 03:07:09;;;;;;;9.20;3.10;;;;;;;0.57;100.00;102072.25;6135306;28;20044;-79
2022/03/04 03:10:12;;;;;;;4.10;2.67;;;;;;;0.51;100.00;102073.06;6148559;29;20047;-78
2022/03/04 03:13:13;;;;;;;6.63;3.17;;;;;;;0.49;100.00;102067.88;6144263;28;20047;-79
2022/03/04 03:16:14;;;;;;;11.27;4.57;;;;;;;0.50;100.00;102069.63;6140992;28;20050;-78
2022/03/04 03:19:16;;;;;;;3.90;2.65;;;;;;;0.52;100.00;102068.75;6149722;28;20055;-79
2022/03/04 03:22:18;;;;;;;7.65;3.22;;;;;;;0.46;100.00;102061.81;6149067;28;20047;-78
2022/03/04 03:25:21;;;;;;;5.57;2.72;;;;;;;0.33;100.00;102063.41;6142108;28;20063;-79
2022/03/04 03:28:23;;;;;;;8.00;3.35;;;;;;;0.33;100.00;102057.38;6125961;29;20070;-78
2022/03/04 03:31:24;;;;;;;7.82;3.28;;;;;;;0.32;100.00;102071.13;6125252;29;20055;-78
2022/03/04 03:34:25;;;;;;;6.30;3.33;;;;;;;0.31;100.00;102062.50;6125646;29;20194;-79
2022/03/04 03:37:27;;;;;;;7.25;3.75;;;;;;;0.32;100.00;102056.53;6125717;29;20442;-79
2022/03/04 03:40:29;;;;;;;7.47;2.72;;;;;;;0.29;100.00;102055.63;6132680;29;20535;-79
2022/03/04 03:43:32;;;;;;;8.98;3.17;;;;;;;0.22;100.00;102059.84;6134831;28;20059;-79
2022/03/04 03:46:33;;;;;;;5.07;2.78;;;;;;;0.16;100.00;102063.22;6139650;28;20052;-79
2022/03/04 03:49:34;;;;;;;4.57;2.40;;;;;;;0.04;100.00;102057.06;6148964;28;20499;-79
2022/03/04 03:52:36;;;;;;;5.38;3.30;;;;;;;0.00;100.00;102069.09;6132805;29;20066;-79
2022/03/04 03:55:38;;;;;;;6.78;3.75;;;;;;;-0.03;100.00;102069.06;6127011;29;20431;-79
2022/03/04 03:58:40;;;;;;;7.45;2.85;;;;;;;-0.02;100.00;102078.53;6141031;28;20051;-79
2022/03/04 04:01:41;;;;;;;6.10;2.75;;;;;;;-0.01;100.00;102077.69;6147512;28;20058;-79
2022/03/04 04:04:44;;;;;;;5.90;3.05;;;;;;;-0.05;100.00;102081.06;6136070;28;20047;-78
2022/03/04 04:07:45;;;;;;;5.40;2.67;;;;;;;-0.05;100.00;102079.34;6147583;28;20047;-79
2022/03/04 04:10:48;;;;;;;9.02;3.53;;;;;;;-0.10;100.00;102078.44;6148392;28;20058;-79
2022/03/04 04:13:49;;;;;;;6.70;2.75;;;;;;;-0.10;100.00;102078.44;6147756;28;20066;-79
2022/03/04 04:16:51;;;;;;;5.55;2.40;;;;;;;-0.10;100.00;102078.44;6147528;28;20059;-78
2022/03/04 04:19:53;;;;;;;8.85;3.38;;;;;;;-0.19;100.00;102070.56;6147033;28;20055;-78
2022/03/04 04:22:54;;;;;;;6.93;3.05;;;;;;;-0.26;100.00;102073.94;6147225;28;20529;-78
2022/03/04 04:25:57;;;;;;;6.68;3.45;;;;;;;-0.27;100.00;102073.09;6123362;28;20044;-78
2022/03/04 04:28:58;;;;;;;6.82;3.30;;;;;;;-0.23;100.00;102075.69;6112227;28;20052;-78
2022/03/04 04:32:00;;;;;;;7.63;2.83;;;;;;;-0.26;100.00;102079.13;6109398;29;20059;-78
2022/03/04 04:35:01;;;;;;;5.82;3.28;;;;;;;-0.31;100.00;102088.53;6110680;29;20052;-79
2022/03/04 04:38:03;;;;;;;7.97;3.10;;;;;;;-0.29;100.00;102089.41;6120725;29;20051;-78
2022/03/04 04:41:06;;;;;;;3.28;2.17;;;;;;;-0.27;100.00;102087.72;6114057;29;20057;-78
2022/03/04 04:44:07;;;;;;;7.13;3.30;;;;;;;-0.34;100.00;102080.72;6099754;29;20055;-78
2022/03/04 04:47:09;;;;;;;8.27;3.05;;;;;;;-0.30;100.00;102091.13;6112087;28;20059;-78
2022/03/04 04:50:11;;;;;;;11.82;3.42;;;;;;;-0.26;100.00;102086.88;6114375;28;20071;-78
2022/03/04 04:53:12;;;;;;;5.63;2.75;;;;;;;-0.20;100.00;102086.94;6108966;28;20063;-78
2022/03/04 04:56:14;;;;;;;14.15;3.75;;;;;;;-0.16;100.00;102083.53;6106006;28;20052;-78
2022/03/04 04:59:16;;;;;;;6.55;3.38;;;;;;;-0.14;100.00;102079.25;6123049;28;20048;-78
2022/03/04 05:02:17;;;;;;;6.40;2.70;;;;;;;-0.14;100.00;102086.13;6122129;28;20055;-78
2022/03/04 05:05:19;;;;;;;10.68;3.33;;;;;;;-0.14;100.00;102081.81;6122953;28;20056;-79
2022/03/04 05:08:21;;;;;;;9.38;4.70;;;;;;;-0.12;100.00;102071.53;6122875;29;20052;-79
2022/03/04 05:11:24;;;;;;;6.50;3.28;;;;;;;-0.11;100.00;102088.75;6122515;29;20052;-79
2022/03/04 05:14:25;;;;;;;5.93;3.75;;;;;;;-0.13;100.00;102085.31;6089534;29;999562;-79
2022/03/04 05:17:27;;;;;;;11.45;3.80;;;;;;;-0.16;100.00;102080.09;6123995;29;20048;-79
2022/03/04 05:20:28;;;;;;;4.13;2.30;;;;;;;-0.20;100.00;102080.91;6122681;29;20052;-78
2022/03/04 05:26:50;;;;;;;6.25;3.33;;;;;;;-0.22;100.00;102096.38;6123692;29;20055;-79
2022/03/04 05:29:52;;;;;;;4.68;2.78;;;;;;;-0.24;100.00;102098.06;6123542;29;20087;-79
2022/03/04 05:32:53;;;;;;;9.50;3.42;;;;;;;-0.22;100.00;102093.81;6123516;29;20683;-79
2022/03/04 05:35:54;;;;;;;10.48;4.10;;;;;;;-0.29;100.00;102090.25;6125488;29;20051;-79
2022/03/04 05:39:05;;;;;;;5.07;2.92;;;;;;;-0.30;100.00;102100.59;6127158;29;20051;-78
2022/03/04 05:42:08;;;;;;;9.60;3.38;;;;;;;-0.36;100.00;102109.13;6136547;28;20070;-79
2022/03/04 05:45:10;;;;;;;8.13;3.83;;;;;;;-0.38;100.00;102110.81;6133849;28;20399;-78
2022/03/04 05:48:11;;;;;;;10.50;3.97;;;;;;;-0.39;100.00;102109.06;6145982;29;20560;-78
2022/03/04 05:51:13;;;;;;;7.35;3.92;;;;;;;-0.39;100.00;102108.22;6136137;28;20055;-79
2022/03/04 05:54:14;;;;;;;4.85;4.03;;;;;;;-0.34;100.00;102109.13;6130883;28;20048;-78
2022/03/04 05:57:17;;;;;;;7.60;2.83;;;;;;;-0.33;100.00;102108.28;6131103;29;20052;-79
2022/03/04 06:00:18;;;;;;;8.70;3.50;;;;;;;-0.30;100.00;102096.28;6146455;29;20061;-78
2022/03/04 06:03:20;;;;;;;9.32;3.08;;;;;;;-0.40;100.00;102109.94;6146770;28;20399;-78
2022/03/04 06:06:21;;;;;;;7.20;3.70;;;;;;;-0.43;100.00;102109.00;6139115;28;20051;-78
2022/03/04 06:09:27;;;;;;;8.07;5.05;;;;;;;-0.39;100.00;102111.66;6138468;29;20059;-79
2022/03/04 06:12:30;;;;;;;9.27;3.78;;;;;;;-0.42;100.00;102109.03;6145993;28;20089;-79
2022/03/04 06:15:32;;;;;;;10.23;3.30;;;;;;;-0.41;100.00;102107.31;6146682;28;20058;-79
2022/03/04 06:18:33;;;;;;;7.20;3.17;;;;;;;-0.48;100.00;102101.19;6137598;29;20048;-79
2022/03/04 06:21:34;;;;;;;7.28;3.53;;;;;;;-0.51;100.00;102108.88;6134316;29;20522;-80
2022/03/04 06:24:36;;;;;;;8.63;3.47;;;;;;;-0.58;100.00;102102.78;6131870;29;20048;-80
2022/03/04 06:27:39;;;;;;;8.73;4.13;;;;;;;-0.59;100.00;102110.50;6146577;28;20047;-79
2022/03/04 06:30:40;;;;;;;8.20;3.40;;;;;;;-0.60;100.00;102114.78;6146865;28;20047;-79
2022/03/04 06:33:42;;;;;;;6.43;3.20;;;;;;;-0.59;100.00;102119.13;6150698;28;20051;-79
2022/03/04 06:36:43;;;;;;;10.10;3.90;;;;;;;-0.63;100.00;102127.69;6150547;28;20051;-80
2022/03/04 06:39:45;;;;;;;7.53;3.58;;;;;;;-0.56;100.00;102121.72;6149944;28;20054;-79
2022/03/04 06:42:49;;;;;;;5.43;3.03;;;;;;;-0.60;100.00;102130.28;6149720;28;20048;-79
2022/03/04 06:45:50;;;;;;;9.48;4.07;;;;;;;-0.63;100.00;102129.38;6150305;28;20137;-79
2022/03/04 06:48:52;;;;;;;12.07;5.78;;;;;;;-0.70;100.00;102143.03;6150555;28;20134;-80
2022/03/04 06:51:53;;;;;;;10.82;5.32;;;;;;;-0.69;100.00;102139.59;6149926;28;20081;-80
2022/03/04 06:54:54;;;;;;;11.45;4.85;;;;;;;-0.63;100.00;102147.47;6150449;28;20055;-79
2022/03/04 06:57:57;;;;;;;7.55;3.45;;;;;;;-0.61;100.00;102144.03;6150222;28;20054;-80
2022/03/04 07:00:58;;;;;;;5.50;2.65;;;;;;;-0.56;100.00;102154.44;6149452;28;20058;-79
2022/03/04 07:04:00;;;;;;;10.48;4.50;;;;;;;-0.54;100.00;102157.94;6150376;28;20047;-79
2022/03/04 07:07:01;;;;;;;5.38;2.90;;;;;;;-0.48;100.00;102160.59;6149989;28;20051;-79
2022/03/04 07:10:04;;;;;;;10.95;4.47;;;;;;;-0.40;100.00;102152.97;6149852;28;20055;-79
2022/03/04 07:13:07;;;;;;;6.85;4.15;;;;;;;-0.31;100.00;102142.75;6149308;28;20055;-79
2022/03/04 07:16:09;;;;;;;4.53;3.15;;;;;;;-0.21;100.00;102154.94;6147037;28;20054;-79
2022/03/04 07:19:10;;;;;;;7.88;3.58;;;;;;;-0.16;100.00;102162.75;6102482;28;20052;-80
2022/03/04 07:22:11;;;;;;;10.23;5.38;;;;;;;-0.19;100.00;102167.88;6105386;29;20051;-79
2022/03/04 07:25:16;;;;;;;10.85;4.70;;;;;;;-0.18;100.00;102154.09;6124205;29;20060;-79
2022/03/04 07:28:18;;;;;;;8.60;4.10;;;;;;;-0.18;100.00;102167.03;6125405;28;20415;-79
2022/03/04 07:31:20;;;;;;;8.25;4.20;;;;;;;-0.15;100.00;102165.34;6134008;29;20055;-79
2022/03/04 07:34:22;;;;;;;8.60;3.42;;;;;;;-0.13;100.00;102173.16;6130455;29;20423;-79
2022/03/04 07:37:23;;;;;;;12.30;4.70;;;;;;;-0.11;100.00;102161.97;6140150;28;20514;-79
2022/03/04 07:40:24;;;;;;;12.18;4.93;;;;;;;0.00;100.00;102162.13;6137182;28;20052;-79
2022/03/04 07:43:27;;;;;;;8.02;3.60;;;;;;;0.18;100.00;102164.94;6117288;28;20058;-79
2022/03/04 07:46:28;;;;;;;10.02;3.95;;;;;;;0.30;100.00;102169.38;6124810;29;20458;-80
2022/03/04 07:49:30;;;;;;;12.48;3.97;;;;;;;0.39;100.00;102177.25;6162573;28;20059;-78
2022/03/04 07:52:32;;;;;;;5.90;2.92;;;;;;;0.53;100.00;102169.63;6124475;28;20059;-77
2022/03/04 07:55:34;;;;;;;7.93;4.05;;;;;;;0.57;100.00;102175.72;6125293;28;20129;-77
2022/03/04 07:58:37;;;;;;;10.10;4.13;;;;;;;0.67;100.00;102178.41;6119377;28;20048;-77
2022/03/04 08:01:38;;;;;;;8.35;3.63;;;;;;;0.76;100.00;102178.50;6101493;29;20070;-77
2022/03/04 08:04:40;;;;;;;5.15;2.90;;;;;;;0.82;100.00;102176.81;6102474;29;20052;-80
2022/03/04 08:07:41;;;;;;;9.63;4.28;;;;;;;0.95;100.00;102181.25;6106013;29;20388;-79
2022/03/04 08:10:42;;;;;;;8.40;3.50;;;;;;;1.13;100.00;102172.78;6139131;28;20394;-79
2022/03/04 08:13:45;;;;;;;4.22;3.00;;;;;;;1.26;100.00;102180.69;6158600;28;20046;-76
2022/03/04 08:16:46;;;;;;;7.80;2.78;;;;;;;1.47;100.00;102180.00;6171169;28;20048;-77
2022/03/04 08:19:48;;;;;;;8.85;3.42;;;;;;;1.55;100.00;102187.81;6175966;28;20040;-78
2022/03/04 08:22:49;;;;;;;8.25;3.38;;;;;;;1.50;100.00;102181.75;6181863;28;20421;-78
2022/03/04 08:25:51;;;;;;;11.52;4.80;;;;;;;1.55;100.00;102176.59;6195143;28;20045;-78
2022/03/04 08:28:53;;;;;;;10.32;3.28;;;;;;;1.67;100.00;102194.78;6182251;28;20451;-78
2022/03/04 08:31:55;;;;;;;5.35;2.70;;;;;;;1.59;100.00;102183.50;6163137;28;20142;-78
2022/03/04 08:34:56;;;;;;;5.70;3.15;;;;;;;1.66;100.00;102188.75;6206145;28;20055;-79
2022/03/04 08:38:00;;;;;;;4.72;2.35;;;;;;;1.86;100.00;102199.22;6122730;28;20047;-77
2022/03/04 08:41:01;;;;;;;7.75;2.95;;;;;;;1.81;100.00;102193.16;6202586;28;20051;-78
2022/03/04 08:44:04;;;;;;;9.40;2.88;;;;;;;1.77;100.00;102187.09;6236200;28;20049;-78
2022/03/04 08:47:05;;;;;;;5.10;2.92;;;;;;;1.83;100.00;102188.88;6209183;28;20066;-77
2022/03/04 08:50:08;;;;;;;7.95;3.45;;;;;;;1.77;100.00;102188.81;6124293;28;20499;-78
2022/03/04 08:53:10;;;;;;;6.32;3.55;;;;;;;1.98;100.00;102199.31;6124360;29;20155;-79
2022/03/04 08:56:11;;;;;;;7.60;3.88;;;;;;;2.04;100.00;102193.28;6124505;28;20055;-80
2022/03/04 08:59:14;;;;;;;8.50;3.67;;;;;;;2.06;100.00;102207.13;6123668;28;20051;-77
2022/03/04 09:02:15;;;;;;;5.22;2.72;;;;;;;1.92;100.00;102204.47;6197752;28;20061;-80
2022/03/04 09:05:17;;;;;;;10.52;3.80;;;;;;;1.83;100.00;102212.19;6131981;28;20063;-79
2022/03/04 09:08:18;;;;;;;7.22;3.65;;;;;;;1.85;100.00;102214.78;6137784;28;20066;-79
2022/03/04 09:11:21;;;;;;;8.93;3.50;;;;;;;1.98;100.00;102216.59;6139822;28;20055;-79
2022/03/04 09:14:24;;;;;;;7.25;2.78;;;;;;;1.91;100.00;102222.63;6143166;28;20507;-79
2022/03/04 09:17:25;;;;;;;7.10;3.53;;;;;;;1.94;100.00;102217.44;6139298;28;20052;-78
2022/03/04 09:20:27;;;;;;;6.43;3.17;;;;;;;1.99;100.00;102218.31;6146777;28;20051;-78
2022/03/04 09:23:28;;;;;;;15.02;4.20;;;;;;;2.13;100.00;102227.03;6147631;28;20055;-78
2022/03/04 09:26:30;;;;;;;9.05;4.05;;;;;;;2.08;100.00;102230.47;6148357;28;20052;-81
2022/03/04 09:29:32;;;;;;;7.95;3.33;;;;;;;2.16;100.00;102241.75;6147668;28;20043;-79
2022/03/04 09:32:34;;;;;;;6.93;3.35;;;;;;;2.30;100.00;102237.50;6147203;28;20422;-79
2022/03/04 09:35:35;;;;;;;5.00;3.13;;;;;;;2.49;100.00;102241.03;6136461;28;20055;-79
2022/03/04 09:38:37;;;;;;;9.32;3.35;;;;;;;2.56;100.00;102239.34;6117359;28;20054;-78
2022/03/04 09:41:41;;;;;;;6.10;2.75;;;;;;;2.62;100.00;102242.81;6137296;28;20059;-79
2022/03/04 09:44:43;;;;;;;5.88;3.08;;;;;;;2.83;100.00;102236.00;6136920;28;20062;-78
2022/03/04 09:47:46;;;;;;;5.78;2.75;;;;;;;2.75;100.00;102239.41;6147270;28;20051;-75
2022/03/04 09:50:48;;;;;;;7.75;2.90;;;;;;;2.80;100.00;102229.03;6135916;28;20054;-76
2022/03/04 09:53:52;;;;;;;6.18;3.10;;;;;;;3.02;100.00;102233.41;6138964;28;20248;-76
2022/03/04 09:56:53;;;;;;;5.60;2.97;;;;;;;3.17;100.00;102236.91;6139120;28;20055;-75
2022/03/04 09:59:56;;;;;;;6.78;3.00;;;;;;;3.19;100.00;102228.25;6126977;29;20043;-76
2022/03/04 10:02:57;;;;;;;5.57;2.85;;;;;;;2.96;100.00;102229.97;6138388;29;20426;-77
2022/03/04 10:06:00;;;;;;;4.80;2.50;;;;;;;3.22;100.00;102236.03;6145687;28;20051;-77
2022/03/04 10:09:02;;;;;;;10.63;3.25;;;;;;;3.14;100.00;102237.78;6146960;28;20063;-77
2022/03/04 10:12:04;;;;;;;7.30;2.78;;;;;;;3.18;100.00;102242.13;6146155;28;20062;-77
2022/03/04 10:15:09;;;;;;;6.70;3.00;;;;;;;3.18;100.00;102243.81;6147010;28;20051;-77
2022/03/04 10:18:10;;;;;;;7.28;3.38;;;;;;;3.25;100.00;102240.38;6147225;28;20410;-77
2022/03/04 10:21:12;;;;;;;7.28;2.67;;;;;;;3.41;100.00;102242.13;6145865;28;20082;-75
2022/03/04 10:24:13;;;;;;;9.13;4.00;;;;;;;3.38;100.00;102249.06;6138910;28;20059;-77
2022/03/04 10:27:16;;;;;;;9.43;3.38;;;;;;;3.36;100.00;102243.88;6137261;28;20513;-79
2022/03/04 10:30:30;;;;;;;6.55;2.97;;;;;;;3.28;100.00;102243.84;6121806;29;20055;-75
2022/03/04 10:33:31;;;;;;;6.07;2.65;;;;;;;3.41;100.00;102241.28;6122088;29;20063;-77
2022/03/04 10:36:32;;;;;;;9.23;3.83;;;;;;;3.46;100.00;102240.41;6123195;28;20129;-77
2022/03/04 10:39:34;;;;;;;6.57;2.95;;;;;;;3.56;100.00;102247.31;6123008;28;20078;-78
2022/03/04 10:42:44;;;;;;;10.30;3.83;;;;;;;3.78;100.00;102242.13;6122130;28;20054;-77
2022/03/04 10:45:47;;;;;;;9.27;3.05;;;;;;;3.63;100.00;102239.50;6122037;28;20059;-78
2022/03/04 10:48:53;;;;;;;8.27;3.40;;;;;;;3.81;100.00;102237.78;6122401;28;20059;-78
2022/03/04 10:52:06;;;;;;;8.90;3.95;;;;;;;3.68;100.00;102248.16;6123144;28;20052;-77
2022/03/04 10:55:08;;;;;;;8.65;4.10;;;;;;;3.51;100.00;102245.59;6103310;28;20075;-77
2022/03/04 10:58:16;;;;;;;6.10;3.38;;;;;;;3.51;100.00;102243.00;6107964;28;20048;-77
2022/03/04 11:01:20;;;;;;;9.05;4.03;;;;;;;3.60;100.00;102244.72;6098429;29;20052;-78
2022/03/04 11:04:22;;;;;;;8.00;3.30;;;;;;;3.61;100.00;102236.06;6098732;28;20055;-76
2022/03/04 11:07:24;;;;;;;10.15;3.58;;;;;;;3.87;100.00;102238.63;6098946;28;20503;-78
2022/03/04 11:10:26;;;;;;;9.27;3.90;;;;;;;3.71;100.00;102235.19;6098244;28;20068;-77
2022/03/04 11:13:29;;;;;;;10.32;4.10;;;;;;;3.86;100.00;102237.78;6098495;28;20052;-77
2022/03/04 11:16:33;;;;;;;10.07;3.63;;;;;;;4.23;99.76;102229.88;6104353;28;20479;-77
2022/03/04 11:19:35;;;;;;;12.02;2.97;;;;;;;3.97;100.00;102228.22;6126024;29;20048;-78
2022/03/04 11:22:40;;;;;;;7.03;2.92;;;;;;;4.21;100.00;102224.66;6125041;28;20048;-77
2022/03/04 11:25:43;;;;;;;9.57;3.42;;;;;;;4.52;99.01;102217.59;6125910;29;20047;-76
2022/03/04 11:28:49;;;;;;;11.23;3.80;;;;;;;4.88;96.07;102217.44;6112646;29;20052;-76
2022/03/04 11:31:52;;;;;;;6.28;3.13;;;;;;;5.13;93.99;102215.50;6102330;29;20059;-77
2022/03/04 11:34:53;;;;;;;7.63;2.50;;;;;;;5.13;92.92;102207.69;6118214;29;20054;-74
2022/03/04 11:37:55;;;;;;;8.68;2.80;;;;;;;5.24;90.93;102213.72;6124735;29;20043;-76
2022/03/04 11:40:56;;;;;;;10.00;3.65;;;;;;;5.25;91.02;102211.06;6137098;29;20046;-76
2022/03/04 11:44:00;;;;;;;6.60;2.28;;;;;;;5.45;89.95;102212.66;6137824;28;20059;-77
2022/03/04 11:47:08;;;;;;;8.63;3.05;;;;;;;5.54;88.98;102208.25;6149304;28;20062;-78
2022/03/04 11:50:31;;;;;;;5.40;2.80;;;;;;;5.75;89.70;102195.88;6139598;28;20537;-76
2022/03/04 11:53:32;;;;;;;7.13;2.72;;;;;;;5.81;88.01;102201.91;6130883;28;20056;-77
2022/03/04 11:56:50;;;;;;;5.50;2.05;;;;;;;6.33;84.94;102192.66;6131899;29;20055;-77
2022/03/04 11:59:57;;;;;;;5.68;1.77;;;;;;;6.24;84.67;102193.63;6140383;28;20059;-76
2022/03/04 12:03:10;;;;;;;4.25;2.08;;;;;;;5.98;83.78;102199.13;6148363;28;20047;-77
2022/03/04 12:06:23;;;;;;;7.93;2.90;;;;;;;5.96;85.36;102197.44;6101441;29;20055;-76
2022/03/04 12:09:26;;;;;;;3.85;2.10;;;;;;;5.93;85.70;102190.50;6101209;29;20059;-75
2022/03/04 12:12:28;;;;;;;6.57;2.65;;;;;;;6.13;84.58;102190.25;6100315;29;20190;-78
2022/03/04 12:15:31;;;;;;;5.88;1.98;;;;;;;6.17;86.52;102191.94;6101056;28;20056;-77
2022/03/04 12:18:39;;;;;;;3.55;1.75;;;;;;;6.92;83.31;102190.97;6102239;29;20428;-78
2022/03/04 12:21:41;;;;;;;3.40;2.00;;;;;;;6.62;82.51;102187.03;6100281;29;20085;-77
2022/03/04 12:24:52;;;;;;;5.40;2.33;;;;;;;7.27;80.20;102187.81;6106135;29;20491;-76
2022/03/04 12:27:55;;;;;;;7.93;2.97;;;;;;;7.38;79.15;102182.38;6123321;29;20044;-77
2022/03/04 12:31:15;;;;;;;6.63;2.58;;;;;;;7.73;78.59;102179.16;6123900;29;20044;-76
2022/03/04 12:34:21;;;;;;;7.10;2.90;;;;;;;7.95;76.94;102187.47;6105943;29;20055;-79
2022/03/04 12:37:23;;;;;;;4.95;2.35;;;;;;;7.74;75.27;102185.25;6100997;29;20056;-78
2022/03/04 12:40:24;;;;;;;7.88;3.28;;;;;;;7.67;75.91;102181.84;6100172;28;20052;-79
2022/03/04 12:43:26;;;;;;;5.07;2.53;;;;;;;7.72;74.47;102189.63;6100927;29;20122;-79
2022/03/04 12:46:29;;;;;;;7.32;3.17;;;;;;;7.61;75.93;102188.06;6101307;28;20439;-80
2022/03/04 12:49:33;;;;;;;3.95;2.47;;;;;;;7.57;76.80;102190.78;6107824;28;20040;-78
2022/03/04 12:52:35;;;;;;;8.15;3.00;;;;;;;7.60;78.06;102185.50;6147808;28;20410;-76
2022/03/04 12:55:37;;;;;;;7.72;2.30;;;;;;;7.89;77.32;102177.94;6147571;28;20051;-75
2022/03/04 12:58:41;;;;;;;8.32;3.00;;;;;;;8.10;73.85;102174.06;6147809;28;20134;-78
2022/03/04 13:01:44;;;;;;;7.40;3.15;;;;;;;7.78;74.76;102168.59;6147158;28;20055;-78
2022/03/04 13:04:58;;;;;;;5.20;2.80;;;;;;;8.13;76.07;102174.00;6134901;28;20427;-79
2022/03/04 13:07:59;;;;;;;7.95;3.30;;;;;;;8.14;74.27;102169.63;6124095;29;20554;-78
2022/03/04 13:11:14;;;;;;;4.80;2.35;;;;;;;8.18;74.63;102167.81;6123201;29;20052;-79
2022/03/04 13:14:18;;;;;;;4.65;2.22;;;;;;;8.20;75.69;102176.50;6123644;29;20060;-78
2022/03/04 13:17:20;;;;;;;5.10;2.50;;;;;;;8.04;75.75;102171.56;6123802;29;20063;-77
2022/03/04 13:20:23;;;;;;;6.97;2.83;;;;;;;7.96;75.30;102178.72;6123085;29;20048;-78
2022/03/04 13:23:24;;;;;;;5.18;2.75;;;;;;;8.56;74.35;102180.97;6123623;28;20052;-77
2022/03/04 13:26:25;;;;;;;6.13;2.55;;;;;;;8.48;72.27;102168.94;6104726;29;20063;-77
2022/03/04 13:29:33;;;;;;;4.93;2.35;;;;;;;8.47;70.33;102175.09;6106869;29;20052;-76
2022/03/04 13:32:44;;;;;;;5.60;2.63;;;;;;;7.87;71.71;102174.50;6114862;29;20056;-79
2022/03/04 13:35:55;;;;;;;4.30;2.40;;;;;;;7.21;75.91;102177.41;6129978;29;20447;-80
2022/03/04 13:39:07;;;;;;;5.05;2.38;;;;;;;7.65;76.09;102167.09;6134994;29;20050;-79
2022/03/04 13:42:21;;;;;;;2.42;1.48;;;;;;;7.79;73.62;102172.94;6129962;28;20051;-77
2022/03/04 13:45:29;;;;;;;3.83;1.88;;;;;;;7.82;73.57;102170.25;6132185;28;20047;-79
2022/03/04 13:48:31;;;;;;;4.13;1.85;;;;;;;8.17;69.72;102166.94;6135455;28;20070;-79
2022/03/04 13:51:36;;;;;;;3.20;1.73;;;;;;;8.08;68.84;102175.88;6131527;29;20052;-77
2022/03/04 13:54:52;;;;;;;3.95;1.70;;;;;;;8.18;70.93;102175.69;6138947;28;20051;-77
2022/03/04 13:57:58;;;;;;;2.83;1.60;;;;;;;8.40;71.41;102174.34;6147083;28;20433;-79
2022/03/04 14:01:01;;;;;;;3.35;1.65;;;;;;;8.41;69.35;102173.47;6146646;28;20047;-79
2022/03/04 14:04:08;;;;;;;3.35;1.55;;;;;;;7.96;69.81;102176.09;6146947;28;20044;-77
2022/03/04 14:07:15;;;;;;;1.98;1.27;;;;;;;8.25;70.58;102169.41;6146793;28;20148;-77
2022/03/04 14:10:18;;;;;;;2.58;1.35;;;;;;;8.28;67.62;102166.72;6146863;28;20104;-76
2022/03/04 14:13:21;;;;;;;4.22;1.20;;;;;;;7.78;68.00;102160.75;6146694;28;20134;-79